Time;durP1;ratioP1;P1;durP2;ratioP2;P2;SDS_P1;SDS_P2;PMS_P1;PMS_P2;Temp;Humidity;BMP_temperature;BMP_pressure;BME280_temperature;BME280_humidity;BME280_pressure;Samples;Min_cycle;Max_cycle;Signal;HPM_P1;HPM_P2
2021/09/05 00:00:13;;;;;;;14.40;8.40;;;;;;;13.01;61.66;101098.36;116795;1195;23460;-78
2021/09/05 00:03:03;;;;;;;11.90;8.50;;;;;;;13.02;61.61;101102.27;116388;1193;21919;-79
2021/09/05 00:05:33;;;;;;;9.00;7.80;;;;;;;13.03;61.50;101105.20;116388;1196;21888;-79
2021/09/05 00:08:03;;;;;;;14.00;9.20;;;;;;;13.03;61.61;101104.63;116657;1197;22430;-79
2021/09/05 00:10:36;;;;;;;10.60;7.90;;;;;;;13.03;61.54;101109.30;116542;1195;23669;-79
2021/09/05 00:13:05;;;;;;;11.40;8.60;;;;;;;13.02;61.61;101113.05;116661;1194;23493;-79
2021/09/05 00:15:35;;;;;;;11.90;7.80;;;;;;;13.02;61.67;101114.88;116598;1197;23452;-79
2021/09/05 00:18:15;;;;;;;12.80;8.30;;;;;;;12.99;61.51;101116.43;116626;1191;21897;-78
2021/09/05 00:20:44;;;;;;;12.20;8.70;;;;;;;12.95;61.71;101117.02;116723;1194;22924;-79
2021/09/05 00:23:14;;;;;;;11.20;8.30;;;;;;;12.96;61.86;101116.07;116530;1196;23453;-77
2021/09/05 00:25:43;;;;;;;12.30;8.10;;;;;;;12.97;61.89;101116.33;116965;1193;21878;-78
2021/09/05 00:28:12;;;;;;;11.00;7.50;;;;;;;13.02;61.92;101123.42;116719;1193;23574;-78
2021/09/05 00:30:42;;;;;;;8.10;6.50;;;;;;;13.05;61.75;101122.73;116793;1193;23443;-79
2021/09/05 00:33:12;;;;;;;9.60;6.80;;;;;;;13.08;61.96;101125.21;116875;1198;23477;-80
2021/09/05 00:35:43;;;;;;;7.30;6.10;;;;;;;13.11;61.93;101120.62;116565;1194;21891;-80
2021/09/05 00:38:22;;;;;;;8.40;6.50;;;;;;;13.14;61.94;101121.34;116403;1198;21897;-80
2021/09/05 00:40:52;;;;;;;9.50;6.60;;;;;;;13.16;61.80;101121.97;116428;1196;23461;-78
2021/09/05 00:43:21;;;;;;;9.50;7.40;;;;;;;13.19;61.85;101123.63;116214;1189;21876;-78
2021/09/05 00:45:51;;;;;;;7.80;6.50;;;;;;;13.19;61.78;101123.80;116431;1196;23480;-78
2021/09/05 00:48:20;;;;;;;11.10;7.90;;;;;;;13.18;61.64;101123.59;116363;1194;21897;-78
2021/09/05 00:50:49;;;;;;;9.00;7.00;;;;;;;13.14;61.48;101121.17;116201;1193;21909;-78
2021/09/05 00:53:20;;;;;;;8.20;6.70;;;;;;;13.09;61.43;101118.86;116256;1197;23490;-78
2021/09/05 00:55:50;;;;;;;9.20;7.90;;;;;;;13.05;61.43;101115.83;116057;1197;22903;-78
2021/09/05 00:58:22;;;;;;;12.50;7.20;;;;;;;13.01;61.51;101116.70;115583;1201;22939;-79
2021/09/05 01:00:53;;;;;;;10.50;7.50;;;;;;;12.98;61.50;101116.20;115657;1201;22292;-79
2021/09/05 01:03:23;;;;;;;13.50;7.90;;;;;;;12.93;61.60;101121.83;115805;1200;21964;-79
2021/09/05 01:05:54;;;;;;;9.10;6.80;;;;;;;12.92;61.79;101120.86;115605;1201;23477;-80
2021/09/05 01:08:26;;;;;;;10.40;7.50;;;;;;;12.91;61.74;101120.14;115830;1200;21907;-79
2021/09/05 01:10:55;;;;;;;9.70;7.10;;;;;;;12.90;61.88;101120.00;116100;1193;21913;-80
2021/09/05 01:13:25;;;;;;;11.60;7.50;;;;;;;12.88;61.88;101127.45;116567;1195;22889;-79
2021/09/05 01:15:54;;;;;;;9.90;7.60;;;;;;;12.86;61.96;101131.13;116472;1191;23542;-79
2021/09/05 01:18:32;;;;;;;8.90;7.20;;;;;;;12.84;62.06;101135.01;116783;1190;21916;-79
2021/09/05 01:21:22;;;;;;;10.20;6.80;;;;;;;12.82;62.14;101143.35;116855;1190;23581;-79
2021/09/05 01:24:27;;;;;;;11.90;6.80;;;;;;;12.80;62.28;101146.09;116777;1191;22164;-79
2021/09/05 01:27:38;;;;;;;8.50;6.90;;;;;;;12.76;62.32;101141.89;116371;1195;23602;-79
2021/09/05 01:30:21;;;;;;;8.40;7.00;;;;;;;12.71;62.35;101145.16;115933;1198;24167;-79
2021/09/05 01:33:15;;;;;;;10.10;6.70;;;;;;;12.69;62.53;101145.20;116033;1199;23472;-79
2021/09/05 01:36:04;;;;;;;11.30;7.90;;;;;;;12.68;62.47;101148.00;116098;1199;22775;-79
2021/09/05 01:38:54;;;;;;;12.90;8.10;;;;;;;12.64;62.43;101148.95;115955;1200;24807;-78
2021/09/05 01:41:45;;;;;;;10.20;7.00;;;;;;;12.59;62.46;101153.02;116061;1198;23538;-79
2021/09/05 01:44:18;;;;;;;9.50;7.50;;;;;;;12.56;62.48;101152.61;116274;1196;21903;-79
2021/09/05 01:47:06;;;;;;;9.20;7.00;;;;;;;12.50;62.57;101151.52;116629;1190;22914;-79
2021/09/05 01:50:01;;;;;;;10.70;7.40;;;;;;;12.44;62.82;101151.73;116731;1192;23510;-79
2021/09/05 01:52:56;;;;;;;10.20;7.20;;;;;;;12.42;63.16;101154.08;116705;1193;22954;-79
2021/09/05 01:55:59;;;;;;;10.20;6.30;;;;;;;12.39;63.25;101157.28;116303;1196;23568;-79
2021/09/05 01:58:47;;;;;;;12.10;7.70;;;;;;;12.36;63.41;101160.25;116046;1198;22267;-79
2021/09/05 02:01:39;;;;;;;8.70;7.00;;;;;;;12.34;63.49;101159.85;116118;1197;23560;-79
2021/09/05 02:04:40;;;;;;;10.10;7.60;;;;;;;12.30;63.56;101162.21;116132;1198;22937;-79
2021/09/05 02:07:39;;;;;;;11.80;7.80;;;;;;;12.25;63.58;101166.63;115828;1200;21891;-79
2021/09/05 02:10:25;;;;;;;12.00;7.80;;;;;;;12.19;63.64;101165.77;116087;1197;22087;-79
2021/09/05 02:13:31;;;;;;;11.80;8.70;;;;;;;12.15;63.88;101165.89;116154;1197;23533;-79
2021/09/05 02:16:24;;;;;;;10.60;7.80;;;;;;;12.12;64.14;101170.66;116524;1190;21909;-79
2021/09/05 02:19:06;;;;;;;12.10;8.80;;;;;;;12.08;64.19;101173.36;116617;1190;23445;-80
2021/09/05 02:22:01;;;;;;;11.70;8.80;;;;;;;12.04;64.27;101174.80;116592;1190;22911;-80
2021/09/05 02:25:00;;;;;;;11.70;8.40;;;;;;;12.02;64.37;101174.16;116735;1191;23449;-80
2021/09/05 02:27:56;;;;;;;11.40;8.10;;;;;;;12.01;64.64;101175.77;116645;1190;23472;-79
2021/09/05 02:30:48;;;;;;;10.60;7.40;;;;;;;12.00;64.67;101176.60;116465;1195;22857;-78
2021/09/05 02:33:34;;;;;;;9.10;7.90;;;;;;;12.01;64.75;101179.67;115997;1195;21999;-79
2021/09/05 02:36:25;;;;;;;12.50;8.60;;;;;;;12.01;64.73;101180.38;115543;1201;21909;-78
2021/09/05 02:39:14;;;;;;;9.50;7.60;;;;;;;11.99;64.65;101180.80;115449;1201;23597;-79
2021/09/05 02:42:09;;;;;;;9.50;8.10;;;;;;;11.95;64.70;101178.91;115324;1203;22322;-79
2021/09/05 02:44:53;;;;;;;10.30;7.90;;;;;;;11.92;64.84;101177.95;115316;1201;22155;-79
2021/09/05 02:47:43;;;;;;;8.60;7.50;;;;;;;11.92;64.95;101179.44;115320;1203;21957;-80
2021/09/05 02:50:39;;;;;;;10.50;7.90;;;;;;;11.90;65.01;101183.63;115411;1199;23498;-80
2021/09/05 02:53:27;;;;;;;8.60;7.30;;;;;;;11.89;64.97;101184.23;116296;1195;21903;-80
2021/09/05 02:56:14;;;;;;;10.90;8.70;;;;;;;11.89;64.90;101183.44;116662;1191;21898;-80
2021/09/05 02:58:47;;;;;;;12.00;7.80;;;;;;;11.87;64.78;101182.05;116827;1190;22180;-80
2021/09/05 03:01:36;;;;;;;9.80;7.90;;;;;;;11.84;64.85;101181.95;116819;1190;24866;-80
2021/09/05 03:04:32;;;;;;;10.20;8.50;;;;;;;11.81;64.74;101186.32;116798;1190;21931;-80
2021/09/05 03:07:24;;;;;;;;;;;;;;;11.77;64.83;101187.73;116786;1190;22932;-80
2021/09/05 03:10:13;;;;;;;9.80;7.70;;;;;;;11.67;65.11;101188.24;116592;1193;23581;-80
2021/09/05 03:13:07;;;;;;;9.70;7.70;;;;;;;11.64;65.13;101189.44;116544;1194;21896;-79
2021/09/05 03:15:56;;;;;;;9.80;8.60;;;;;;;11.62;65.11;101190.67;116498;1196;23647;-79
2021/09/05 03:18:45;;;;;;;9.10;7.50;;;;;;;11.61;65.27;101198.17;116304;1197;23900;-79
2021/09/05 03:21:26;;;;;;;10.60;7.60;;;;;;;11.58;65.26;101196.07;116181;1197;23484;-79
2021/09/05 03:24:10;;;;;;;10.70;7.60;;;;;;;11.54;65.30;101193.63;116116;1197;23554;-80
2021/09/05 03:26:46;;;;;;;11.40;7.60;;;;;;;11.50;65.47;101198.45;116174;1195;22901;-80
2021/09/05 03:29:41;;;;;;;11.30;7.80;;;;;;;11.46;65.72;101200.10;116295;1197;23559;-80
2021/09/05 03:32:39;;;;;;;10.20;6.70;;;;;;;11.41;65.69;101203.77;116541;1195;23475;-80
2021/09/05 03:35:34;;;;;;;12.90;8.30;;;;;;;11.37;65.77;101209.29;116529;1193;22176;-79
2021/09/05 03:38:24;;;;;;;10.90;7.60;;;;;;;11.30;65.87;101206.35;116585;1190;21928;-79
2021/09/05 03:41:22;;;;;;;9.70;7.20;;;;;;;11.23;66.14;101207.38;116490;1194;23451;-78
2021/09/05 03:44:21;;;;;;;8.00;6.30;;;;;;;11.19;66.44;101208.87;116513;1190;23470;-79
2021/09/05 03:47:10;;;;;;;7.90;6.60;;;;;;;11.17;66.61;101215.56;116876;1190;24006;-79
2021/09/05 03:50:00;;;;;;;10.00;6.50;;;;;;;11.18;66.79;101222.08;116847;1190;21892;-79
2021/09/05 03:52:29;;;;;;;7.80;6.10;;;;;;;11.19;66.75;101227.02;116818;1190;21946;-79
2021/09/05 03:55:02;;;;;;;10.50;7.60;;;;;;;11.20;66.78;101235.78;116922;1190;21892;-78
2021/09/05 03:57:32;;;;;;;11.80;7.60;;;;;;;11.21;66.90;101241.31;116689;1190;22706;-79
2021/09/05 04:00:04;;;;;;;12.30;8.60;;;;;;;11.22;67.00;101242.22;116604;1193;23482;-79
2021/09/05 04:02:42;;;;;;;12.50;8.60;;;;;;;11.23;66.97;101244.61;116627;1193;21922;-79
2021/09/05 04:05:13;;;;;;;8.50;7.00;;;;;;;11.23;67.06;101245.56;116629;1193;21923;-79
2021/09/05 04:07:50;;;;;;;12.80;6.70;;;;;;;11.21;67.05;101244.81;116605;1188;21914;-78
2021/09/05 04:10:20;;;;;;;10.00;6.90;;;;;;;11.21;67.36;101247.27;116536;1193;23001;-80
2021/09/05 04:12:50;;;;;;;9.30;6.80;;;;;;;11.23;67.38;101245.73;116604;1193;23450;-79
2021/09/05 04:15:20;;;;;;;11.80;7.70;;;;;;;11.21;67.33;101243.38;116270;1196;22868;-78
2021/09/05 04:17:50;;;;;;;8.70;7.20;;;;;;;11.22;67.40;101248.27;116258;1196;24485;-78
2021/09/05 04:20:21;;;;;;;15.50;8.90;;;;;;;11.22;67.35;101246.71;116275;1195;23462;-79
2021/09/05 04:22:54;;;;;;;8.60;6.60;;;;;;;11.21;67.33;101251.02;115965;1198;21913;-79
2021/09/05 04:25:23;;;;;;;7.50;6.40;;;;;;;11.20;67.44;101248.09;116068;1198;22318;-79
2021/09/05 04:27:52;;;;;;;10.50;7.60;;;;;;;11.20;67.42;101250.27;115755;1198;21905;-79
2021/09/05 04:30:22;;;;;;;17.20;8.80;;;;;;;11.17;67.32;101259.30;116028;1199;24845;-79
2021/09/05 04:32:51;;;;;;;11.20;8.40;;;;;;;11.16;67.52;101259.27;116038;1198;23481;-80
2021/09/05 04:35:21;;;;;;;10.60;8.30;;;;;;;11.14;67.64;101255.95;116201;1197;23483;-79
2021/09/05 04:37:50;;;;;;;10.60;6.50;;;;;;;11.13;67.64;101262.75;116304;1192;23495;-80
2021/09/05 04:40:20;;;;;;;9.20;6.70;;;;;;;11.13;67.94;101266.75;116442;1195;23524;-79
2021/09/05 04:42:49;;;;;;;9.30;6.50;;;;;;;11.15;68.08;101269.77;116415;1195;21912;-79
2021/09/05 04:45:18;;;;;;;11.20;7.20;;;;;;;11.17;68.09;101268.84;116308;1194;21923;-79
2021/09/05 04:47:47;;;;;;;9.50;6.30;;;;;;;11.18;68.06;101272.60;116616;1190;21914;-79
2021/09/05 04:50:17;;;;;;;11.50;7.20;;;;;;;11.21;68.09;101275.66;116839;1190;22615;-80
2021/09/05 04:52:46;;;;;;;10.10;7.30;;;;;;;11.22;68.09;101281.63;116496;1193;21848;-79
2021/09/05 04:55:18;;;;;;;11.10;6.90;;;;;;;11.23;68.24;101285.02;116550;1193;21951;-80
2021/09/05 04:57:47;;;;;;;8.80;6.30;;;;;;;11.26;68.38;101282.60;116389;1196;21917;-81
2021/09/05 05:00:16;;;;;;;8.60;6.70;;;;;;;11.31;68.39;101283.73;116134;1195;21913;-81
2021/09/05 05:02:46;;;;;;;9.40;6.50;;;;;;;11.37;68.40;101280.52;115920;1200;23102;-81
2021/09/05 05:05:15;;;;;;;10.30;5.60;;;;;;;11.41;68.29;101284.52;115277;1200;22003;-81
2021/09/05 05:07:45;;;;;;;9.90;6.20;;;;;;;11.45;68.37;101286.08;115250;1200;23488;-80
2021/09/05 05:10:14;;;;;;;14.80;7.00;;;;;;;11.48;68.38;101289.06;115370;1203;22630;-80
2021/09/05 05:12:43;;;;;;;9.90;6.90;;;;;;;11.54;68.35;101291.83;115374;1201;22967;-82
2021/09/05 05:15:13;;;;;;;9.00;6.50;;;;;;;11.58;68.23;101292.59;115391;1202;23595;-80
2021/09/05 05:17:42;;;;;;;10.70;7.00;;;;;;;11.60;68.29;101294.15;115592;1201;23739;-81
2021/09/05 05:20:12;;;;;;;10.40;6.50;;;;;;;11.64;68.34;101292.35;115679;1196;22928;-80
2021/09/05 05:22:41;;;;;;;10.90;7.50;;;;;;;11.68;68.37;101293.98;116202;1196;21924;-82
2021/09/05 05:25:11;;;;;;;12.70;7.30;;;;;;;11.72;68.11;101296.23;116287;1196;23550;-83
2021/09/05 05:27:40;;;;;;;9.50;7.50;;;;;;;11.75;68.19;101298.57;116217;1196;21898;-82
2021/09/05 05:30:10;;;;;;;10.60;7.60;;;;;;;11.81;68.37;101300.84;116253;1196;23689;-82
2021/09/05 05:32:39;;;;;;;10.90;7.40;;;;;;;11.87;68.38;101297.58;116548;1194;21926;-82
2021/09/05 05:35:09;;;;;;;10.90;8.00;;;;;;;11.95;68.19;101297.33;116552;1192;22873;-81
2021/09/05 05:37:39;;;;;;;10.00;6.80;;;;;;;12.00;68.08;101303.55;116471;1195;22905;-80
2021/09/05 05:40:09;;;;;;;10.20;7.70;;;;;;;12.03;67.89;101308.23;116523;1192;21888;-82
2021/09/05 05:42:41;;;;;;;8.80;6.50;;;;;;;12.08;67.97;101316.85;116576;1193;22936;-81
2021/09/05 05:45:11;;;;;;;9.60;7.80;;;;;;;12.15;67.89;101324.98;116559;1193;23563;-80
2021/09/05 05:47:43;;;;;;;11.00;6.60;;;;;;;12.24;67.96;101328.73;116164;1197;23554;-81
2021/09/05 05:50:13;;;;;;;7.90;6.80;;;;;;;12.36;68.05;101330.64;116317;1192;22928;-81
2021/09/05 05:52:42;;;;;;;11.10;7.60;;;;;;;12.52;68.05;101336.13;115890;1195;23565;-81
2021/09/05 05:55:11;;;;;;;10.90;8.40;;;;;;;12.69;67.96;101341.13;115842;1196;21899;-81
2021/09/05 05:57:44;;;;;;;10.40;8.60;;;;;;;12.87;67.80;101342.12;115953;1198;23464;-81
2021/09/05 06:00:14;;;;;;;12.70;8.30;;;;;;;13.05;67.46;101343.60;115424;1201;22837;-81
2021/09/05 06:02:43;;;;;;;9.60;7.10;;;;;;;13.24;67.30;101340.92;115213;1201;21900;-82
2021/09/05 06:05:13;;;;;;;10.40;7.70;;;;;;;13.49;67.36;101340.73;115412;1204;23545;-79
2021/09/05 06:07:42;;;;;;;10.80;7.80;;;;;;;13.79;66.83;101345.86;115381;1203;21937;-81
2021/09/05 06:10:12;;;;;;;9.60;7.30;;;;;;;14.04;66.05;101349.14;115477;1201;21909;-81
2021/09/05 06:12:42;;;;;;;9.80;7.30;;;;;;;14.37;65.98;101347.20;115682;1201;22309;-81
2021/09/05 06:15:11;;;;;;;14.20;8.10;;;;;;;14.75;65.43;101340.85;115920;1200;23718;-82
2021/09/05 06:17:42;;;;;;;11.70;7.80;;;;;;;15.17;64.26;101342.64;115137;1200;24006;-80
2021/09/05 06:20:12;;;;;;;9.90;7.00;;;;;;;15.46;62.60;101341.00;115309;1203;24174;-79
2021/09/05 06:22:41;;;;;;;9.60;7.40;;;;;;;15.78;62.14;101338.19;115874;1200;21895;-81
2021/09/05 06:25:10;;;;;;;11.10;7.80;;;;;;;16.19;61.51;101340.56;116249;1198;22325;-82
2021/09/05 06:27:40;;;;;;;11.00;7.00;;;;;;;16.45;59.45;101344.73;116211;1196;24240;-81
2021/09/05 06:30:11;;;;;;;10.80;7.80;;;;;;;16.45;57.70;101351.19;116266;1195;21898;-81
2021/09/05 06:32:40;;;;;;;9.80;7.30;;;;;;;16.33;56.75;101356.30;116133;1197;21905;-81
2021/09/05 06:35:09;;;;;;;10.50;7.40;;;;;;;16.18;56.57;101359.20;116244;1196;21885;-82
2021/09/05 06:37:39;;;;;;;9.10;7.30;;;;;;;16.15;57.34;101367.19;116889;1194;23553;-81
2021/09/05 06:40:10;;;;;;;7.60;6.40;;;;;;;16.35;58.39;101375.12;116782;1190;21899;-81
2021/09/05 06:42:39;;;;;;;9.40;6.70;;;;;;;16.71;58.51;101373.66;116575;1189;21917;-81
2021/09/05 06:45:09;;;;;;;10.10;7.20;;;;;;;17.13;57.78;101374.30;116456;1197;21901;-81
2021/09/05 06:47:38;;;;;;;8.10;7.00;;;;;;;17.49;56.25;101376.17;116204;1197;22362;-81
2021/09/05 06:50:10;;;;;;;11.60;6.30;;;;;;;17.69;54.39;101373.50;116313;1197;21903;-81
2021/09/05 06:52:40;;;;;;;10.40;7.20;;;;;;;17.82;53.89;101376.41;116300;1196;23580;-81
2021/09/05 06:55:09;;;;;;;8.00;6.10;;;;;;;18.06;54.15;101373.20;116341;1198;21907;-81
2021/09/05 06:57:39;;;;;;;9.10;6.50;;;;;;;18.28;52.99;101370.71;116288;1197;22185;-81
2021/09/05 07:00:09;;;;;;;9.00;6.90;;;;;;;18.41;52.38;101376.11;115880;1199;21917;-81
2021/09/05 07:02:38;;;;;;;15.30;7.00;;;;;;;18.53;51.94;101377.64;115948;1198;22454;-82
2021/09/05 07:05:10;;;;;;;10.60;7.50;;;;;;;18.62;51.07;101382.44;116271;1198;21912;-81
2021/09/05 07:07:44;;;;;;;11.30;8.10;;;;;;;18.62;50.69;101390.60;116219;1195;23544;-81
2021/09/05 07:10:14;;;;;;;11.10;7.20;;;;;;;18.70;50.84;101391.70;115859;1195;23555;-81
2021/09/05 07:12:45;;;;;;;13.00;7.40;;;;;;;19.00;51.05;101393.20;115970;1195;22990;-82
2021/09/05 07:15:21;;;;;;;11.50;7.00;;;;;;;19.40;50.62;101397.91;115871;1200;21919;-81
2021/09/05 07:17:51;;;;;;;8.70;6.50;;;;;;;19.68;48.90;101400.13;116051;1195;21990;-80
2021/09/05 07:20:20;;;;;;;13.90;5.90;;;;;;;19.95;48.03;101400.77;116181;1198;22899;-82
2021/09/05 07:22:49;;;;;;;9.70;6.10;;;;;;;20.30;47.62;101402.91;116416;1196;21906;-82
2021/09/05 07:25:21;;;;;;;7.30;5.10;;;;;;;20.67;46.92;101412.11;116110;1195;21946;-82
2021/09/05 07:27:51;;;;;;;7.00;5.00;;;;;;;20.97;45.49;101413.59;116371;1196;22627;-81
2021/09/05 07:30:20;;;;;;;5.70;4.50;;;;;;;21.15;44.71;101417.73;116535;1195;22861;-82
2021/09/05 07:32:50;;;;;;;7.80;5.10;;;;;;;21.35;43.81;101417.88;116606;1192;23481;-81
2021/09/05 07:35:19;;;;;;;5.80;4.60;;;;;;;21.46;43.27;101420.80;116586;1193;21899;-81
2021/09/05 07:37:49;;;;;;;5.70;4.40;;;;;;;21.60;42.86;101422.98;116777;1190;22954;-81
2021/09/05 07:40:21;;;;;;;6.10;4.30;;;;;;;21.76;42.17;101426.74;116763;1192;23564;-81
2021/09/05 07:42:50;;;;;;;8.60;4.60;;;;;;;21.76;41.32;101429.14;116873;1190;21973;-81
2021/09/05 07:45:19;;;;;;;5.50;4.60;;;;;;;21.77;41.15;101431.66;116861;1192;21903;-82
2021/09/05 07:47:48;;;;;;;6.40;4.20;;;;;;;21.87;40.85;101433.19;116476;1193;21890;-81
2021/09/05 07:50:17;;;;;;;5.40;3.80;;;;;;;21.96;40.48;101434.94;116410;1191;23498;-81
2021/09/05 07:52:47;;;;;;;6.30;4.70;;;;;;;22.08;40.15;101433.13;116540;1194;23566;-82
2021/09/05 07:55:16;;;;;;;5.60;3.80;;;;;;;22.26;39.60;101435.05;116429;1190;22067;-82
2021/09/05 07:57:46;;;;;;;6.30;3.90;;;;;;;22.40;39.10;101435.20;116611;1195;22109;-81
2021/09/05 08:00:15;;;;;;;5.60;3.90;;;;;;;22.58;38.60;101441.48;116492;1195;22739;-82
2021/09/05 08:02:45;;;;;;;5.60;4.20;;;;;;;22.62;38.02;101446.35;116382;1193;22845;-81
2021/09/05 08:05:15;;;;;;;8.60;5.30;;;;;;;22.63;38.42;101449.88;116090;1197;24768;-81
2021/09/05 08:07:44;;;;;;;5.50;3.90;;;;;;;22.73;38.78;101452.92;116640;1189;23444;-82
2021/09/05 08:10:14;;;;;;;5.70;4.80;;;;;;;22.89;37.99;101454.02;116606;1197;23611;-81
2021/09/05 08:12:43;;;;;;;9.70;8.70;;;;;;;22.94;37.38;101455.94;116565;1190;21913;-81
2021/09/05 08:15:12;;;;;;;5.90;4.50;;;;;;;23.05;37.47;101453.73;116016;1196;23222;-81
2021/09/05 08:17:41;;;;;;;9.60;5.80;;;;;;;23.06;36.52;101455.08;115982;1199;23565;-82
2021/09/05 08:20:12;;;;;;;6.10;4.00;;;;;;;22.93;36.54;101455.52;115957;1200;23478;-81
2021/09/05 08:22:41;;;;;;;4.50;3.50;;;;;;;22.93;36.90;101453.91;115695;1200;23555;-82
2021/09/05 08:25:11;;;;;;;6.90;4.40;;;;;;;23.02;36.20;101453.90;116313;1195;23401;-82
2021/09/05 08:27:40;;;;;;;5.00;3.50;;;;;;;22.99;36.02;101455.43;115527;1201;23566;-81
2021/09/05 08:30:10;;;;;;;5.90;4.90;;;;;;;23.07;36.33;101457.09;115527;1198;21900;-82
2021/09/05 08:32:39;;;;;;;4.60;3.80;;;;;;;23.31;36.31;101461.47;115555;1198;21905;-82
2021/09/05 08:35:09;;;;;;;9.90;6.70;;;;;;;23.34;34.78;101467.04;116433;1195;22164;-82
2021/09/05 08:37:40;;;;;;;5.60;3.70;;;;;;;23.27;34.86;101468.02;116527;1194;21915;-82
2021/09/05 08:40:09;;;;;;;4.10;3.10;;;;;;;23.25;34.50;101470.38;116367;1196;21887;-83
2021/09/05 08:42:40;;;;;;;7.00;3.60;;;;;;;23.23;34.25;101472.23;116438;1195;22211;-81
2021/09/05 08:45:10;;;;;;;4.20;3.50;;;;;;;23.23;33.93;101470.92;116420;1194;22394;-82
2021/09/05 08:47:42;;;;;;;4.20;3.60;;;;;;;23.17;34.02;101472.95;116846;1192;23615;-82
2021/09/05 08:50:12;;;;;;;;;;;;;;;23.14;34.48;101470.13;117125;1191;22229;-82
2021/09/05 08:52:41;;;;;;;5.40;3.60;;;;;;;23.13;34.38;101471.39;116919;1189;21941;-82
2021/09/05 08:55:10;;;;;;;4.40;3.10;;;;;;;23.23;34.31;101472.06;116809;1191;21892;-81
2021/09/05 08:57:39;;;;;;;4.20;2.90;;;;;;;23.24;33.62;101475.06;116826;1189;22904;-84
2021/09/05 09:00:10;;;;;;;5.70;3.30;;;;;;;23.14;33.40;101477.34;116944;1191;22915;-82
2021/09/05 09:02:55;;;;;;;5.30;3.60;;;;;;;23.27;33.95;101472.14;117029;1190;21925;-82
2021/09/05 09:05:36;;;;;;;3.70;3.20;;;;;;;23.49;33.25;101472.39;117043;1192;21890;-81
2021/09/05 09:08:13;;;;;;;5.70;2.70;;;;;;;23.40;33.19;101469.70;117048;1187;21878;-82
2021/09/05 09:10:51;;;;;;;6.10;3.30;;;;;;;23.43;33.56;101471.68;116938;1194;21885;-82
2021/09/05 09:13:29;;;;;;;5.00;3.00;;;;;;;23.55;33.42;101474.76;117063;1187;22922;-82
2021/09/05 09:16:05;;;;;;;6.10;2.90;;;;;;;23.61;33.36;101472.52;116977;1194;21896;-82
2021/09/05 09:18:38;;;;;;;8.00;2.90;;;;;;;23.75;32.60;101472.70;117004;1190;21886;-82
2021/09/05 09:21:12;;;;;;;3.80;2.40;;;;;;;23.71;32.28;101474.70;116921;1191;21899;-81
2021/09/05 09:23:42;;;;;;;3.70;2.60;;;;;;;23.48;31.92;101477.11;116938;1186;21916;-83
2021/09/05 09:26:16;;;;;;;4.80;2.60;;;;;;;23.29;32.40;101477.09;116733;1193;22899;-81
2021/09/05 09:28:49;;;;;;;3.90;2.50;;;;;;;23.27;32.42;101474.87;116932;1190;21896;-82
2021/09/05 09:31:25;;;;;;;4.30;2.70;;;;;;;23.32;32.46;101471.73;116973;1193;23585;-82
2021/09/05 09:33:59;;;;;;;5.40;2.90;;;;;;;23.38;32.40;101470.85;116616;1195;21908;-81
2021/09/05 09:36:30;;;;;;;3.20;2.40;;;;;;;23.56;32.73;101467.44;116454;1196;22353;-81
2021/09/05 09:39:06;;;;;;;4.70;2.80;;;;;;;23.68;32.06;101466.52;116387;1197;22056;-81
2021/09/05 09:41:39;;;;;;;3.60;2.20;;;;;;;23.64;31.43;101464.77;116428;1195;21911;-82
2021/09/05 09:44:14;;;;;;;3.70;3.10;;;;;;;23.72;31.59;101465.55;116018;1198;23456;-81
2021/09/05 09:46:44;;;;;;;3.10;2.40;;;;;;;23.82;31.38;101464.22;115947;1195;23491;-82
2021/09/05 09:49:15;;;;;;;4.00;2.60;;;;;;;23.84;31.10;101466.59;115974;1201;22955;-82
2021/09/05 09:51:44;;;;;;;5.20;2.70;;;;;;;23.86;31.45;101466.70;116126;1198;21916;-82
2021/09/05 09:54:14;;;;;;;6.50;2.60;;;;;;;23.99;31.28;101469.45;115997;1199;21907;-81
2021/09/05 09:56:44;;;;;;;3.40;2.00;;;;;;;24.01;31.06;101467.30;115559;1201;21968;-81
2021/09/05 09:59:14;;;;;;;4.40;2.40;;;;;;;24.05;30.97;101466.21;115860;1200;24202;-83
2021/09/05 10:01:50;;;;;;;4.70;2.50;;;;;;;24.07;31.24;101460.98;115567;1202;21898;-81
2021/09/05 10:04:21;;;;;;;5.80;2.60;;;;;;;24.22;31.18;101461.73;115513;1202;22402;-83
2021/09/05 10:06:50;;;;;;;3.00;2.40;;;;;;;24.27;30.95;101460.58;115492;1203;21920;-81
2021/09/05 10:09:21;;;;;;;3.90;2.30;;;;;;;24.29;30.50;101461.75;115283;1203;21976;-82
2021/09/05 10:11:51;;;;;;;;;;;;;;;24.14;30.04;101461.22;115420;1203;24219;-85
2021/09/05 10:14:29;;;;;;;4.00;2.40;;;;;;;23.86;30.48;101459.73;115816;1198;21872;-84
2021/09/05 10:17:00;;;;;;;3.80;2.30;;;;;;;23.78;31.24;101455.63;115854;1200;21911;-87
2021/09/05 10:19:52;;;;;;;5.90;2.70;;;;;;;23.84;31.03;101456.39;116284;1200;23565;-86
2021/09/05 10:22:30;;;;;;;2.90;2.20;;;;;;;23.79;31.14;101455.87;116539;1197;23563;-86
2021/09/05 10:25:06;;;;;;;;;;;;;;;23.82;31.36;101452.34;116952;1195;21908;-86
2021/09/05 10:27:50;;;;;;;3.90;2.30;;;;;;;23.89;31.81;101452.74;116615;1197;23461;-85
2021/09/05 10:30:24;;;;;;;6.20;2.60;;;;;;;24.10;31.47;101454.14;116528;1198;21859;-85
2021/09/05 10:32:59;;;;;;;4.70;2.50;;;;;;;24.19;30.75;101451.30;116832;1193;21911;-85
2021/09/05 10:35:45;;;;;;;4.00;2.40;;;;;;;24.21;30.60;101455.46;116983;1192;21893;-85
2021/09/05 10:38:25;;;;;;;3.80;2.50;;;;;;;24.16;30.51;101454.75;116886;1196;23638;-83
2021/09/05 10:41:01;;;;;;;3.60;2.30;;;;;;;24.08;30.28;101456.84;116981;1193;23630;-84
2021/09/05 10:43:58;;;;;;;3.70;2.20;;;;;;;23.87;30.41;101458.67;116737;1196;22713;-83
2021/09/05 10:46:37;;;;;;;3.10;2.40;;;;;;;23.66;30.89;101452.09;116988;1194;23227;-85
2021/09/05 10:49:08;;;;;;;5.80;2.70;;;;;;;23.53;31.12;101455.39;116980;1193;21942;-86
2021/09/05 10:51:51;;;;;;;7.90;2.50;;;;;;;23.27;30.98;101453.48;116983;1192;21996;-84
2021/09/05 10:54:28;;;;;;;4.10;2.80;;;;;;;23.06;31.57;101446.09;116850;1195;21927;-84
2021/09/05 10:57:00;;;;;;;2.40;2.00;;;;;;;23.03;32.10;101446.19;116751;1198;21910;-86
2021/09/05 10:59:33;;;;;;;4.80;2.30;;;;;;;22.94;32.04;101447.42;116734;1197;21903;-86
2021/09/05 11:02:07;;;;;;;4.40;1.90;;;;;;;22.76;31.82;101452.72;116360;1198;23458;-84
2021/09/05 11:04:43;;;;;;;3.60;2.60;;;;;;;22.41;32.08;101447.27;116024;1199;22282;-85
2021/09/05 11:07:33;;;;;;;4.00;2.20;;;;;;;22.10;32.60;101449.85;116364;1197;21907;-84
2021/09/05 11:10:09;;;;;;;3.40;2.40;;;;;;;21.73;32.78;101446.36;115821;1201;21942;-84
2021/09/05 11:12:40;;;;;;;4.60;2.20;;;;;;;21.46;33.26;101448.19;115824;1203;22539;-85
2021/09/05 11:15:22;;;;;;;4.60;2.60;;;;;;;21.19;33.72;101441.95;115756;1203;21901;-85
2021/09/05 11:17:53;;;;;;;6.90;2.10;;;;;;;20.99;33.95;101443.59;115354;1204;23590;-85
2021/09/05 11:20:40;;;;;;;3.90;2.30;;;;;;;20.76;34.48;101442.64;115423;1204;21913;-82
2021/09/05 11:23:15;;;;;;;7.60;2.90;;;;;;;20.65;35.02;101443.77;115329;1205;22000;-85
2021/09/05 11:25:45;;;;;;;4.10;2.90;;;;;;;20.56;35.37;101443.69;115382;1205;22035;-86
2021/09/05 11:28:19;;;;;;;4.20;2.40;;;;;;;20.45;35.77;101439.80;115201;1205;23000;-84
2021/09/05 11:31:04;;;;;;;3.20;2.20;;;;;;;20.39;36.37;101434.86;115409;1203;23629;-86
2021/09/05 11:33:34;;;;;;;3.50;2.20;;;;;;;20.41;36.70;101433.50;115555;1200;21916;-84
2021/09/05 11:36:10;;;;;;;3.00;2.30;;;;;;;20.37;36.32;101439.08;115368;1205;22307;-84
2021/09/05 11:38:41;;;;;;;3.40;2.50;;;;;;;20.25;36.41;101444.73;115323;1202;21908;-84
2021/09/05 11:41:11;;;;;;;4.70;2.60;;;;;;;20.15;36.40;101445.50;115503;1199;21954;-85
2021/09/05 11:43:44;;;;;;;2.30;1.90;;;;;;;20.08;36.63;101446.69;115623;1201;21916;-85
2021/09/05 11:46:17;;;;;;;6.20;2.60;;;;;;;20.09;36.89;101441.08;115687;1200;21910;-85
2021/09/05 11:48:58;;;;;;;3.00;2.10;;;;;;;20.09;36.96;101441.40;115686;1202;21916;-84
2021/09/05 11:51:34;;;;;;;3.10;1.90;;;;;;;20.10;37.20;101441.40;115599;1203;21941;-84